sensor_id;sensor_type;location;lat;lon;timestamp;pressure;altitude;pressure_sealevel;temperature;humidity
13705;BME280;6924;52.122;9.952;2023-04-27T00:00:24;100881.88;;;6.25;71.38
13705;BME280;6924;52.122;9.952;2023-04-27T00:02:51;100890.56;;;6.24;71.81
13705;BME280;6924;52.122;9.952;2023-04-27T00:05:17;100881.31;;;6.23;71.72
13705;BME280;6924;52.122;9.952;2023-04-27T00:07:44;100879.63;;;6.22;71.78
13705;BME280;6924;52.122;9.952;2023-04-27T00:10:10;100882.44;;;6.22;71.53
13705;BME280;6924;52.122;9.952;2023-04-27T00:12:37;100879.06;;;6.20;71.88
13705;BME280;6924;52.122;9.952;2023-04-27T00:15:04;100882.97;;;6.19;71.82
13705;BME280;6924;52.122;9.952;2023-04-27T00:17:32;100884.13;;;6.18;72.04
13705;BME280;6924;52.122;9.952;2023-04-27T00:19:58;100886.09;;;6.17;71.78
13705;BME280;6924;52.122;9.952;2023-04-27T00:22:25;100882.41;;;6.17;72.11
13705;BME280;6924;52.122;9.952;2023-04-27T00:24:52;100884.66;;;6.15;71.91
13705;BME280;6924;52.122;9.952;2023-04-27T00:27:18;100883.81;;;6.14;71.96
13705;BME280;6924;52.122;9.952;2023-04-27T00:29:45;100879.03;;;6.15;72.21
13705;BME280;6924;52.122;9.952;2023-04-27T00:32:11;100882.72;;;6.15;72.18
13705;BME280;6924;52.122;9.952;2023-04-27T00:34:39;100876.78;;;6.12;72.99
13705;BME280;6924;52.122;9.952;2023-04-27T00:37:05;100877.63;;;6.12;72.97
13705;BME280;6924;52.122;9.952;2023-04-27T00:39:33;100881.56;;;6.11;73.19
13705;BME280;6924;52.122;9.952;2023-04-27T00:42:00;100886.31;;;6.00;72.96
13705;BME280;6924;52.122;9.952;2023-04-27T00:44:26;100880.13;;;6.04;72.84
13705;BME280;6924;52.122;9.952;2023-04-27T00:46:53;100879.28;;;6.03;73.04
13705;BME280;6924;52.122;9.952;2023-04-27T00:49:20;100882.69;;;6.05;72.90
13705;BME280;6924;52.122;9.952;2023-04-27T00:51:48;100877.06;;;6.05;73.00
13705;BME280;6924;52.122;9.952;2023-04-27T00:54:18;100886.31;;;6.06;73.49
13705;BME280;6924;52.122;9.952;2023-04-27T00:56:47;100888.03;;;6.07;73.53
13705;BME280;6924;52.122;9.952;2023-04-27T00:59:14;100894.47;;;6.07;73.88
13705;BME280;6924;52.122;9.952;2023-04-27T01:01:40;100896.44;;;6.07;73.99
13705;BME280;6924;52.122;9.952;2023-04-27T01:04:07;100887.16;;;6.06;74.70
13705;BME280;6924;52.122;9.952;2023-04-27T01:06:33;100885.75;;;6.04;74.69
13705;BME280;6924;52.122;9.952;2023-04-27T01:09:01;100892.50;;;6.03;75.13
13705;BME280;6924;52.122;9.952;2023-04-27T01:11:28;100881.28;;;6.03;75.09
13705;BME280;6924;52.122;9.952;2023-04-27T01:13:54;100896.41;;;6.02;75.37
13705;BME280;6924;52.122;9.952;2023-04-27T01:16:21;100893.59;;;6.02;75.40
13705;BME280;6924;52.122;9.952;2023-04-27T01:18:47;100900.09;;;6.02;75.63
13705;BME280;6924;52.122;9.952;2023-04-27T01:21:13;100901.19;;;6.01;75.51
13705;BME280;6924;52.122;9.952;2023-04-27T01:23:42;100901.19;;;5.96;75.45
13705;BME280;6924;52.122;9.952;2023-04-27T01:26:08;100896.38;;;5.91;75.43
13705;BME280;6924;52.122;9.952;2023-04-27T01:28:37;100900.56;;;5.89;75.40
13705;BME280;6924;52.122;9.952;2023-04-27T01:31:04;100906.47;;;5.92;75.60
13705;BME280;6924;52.122;9.952;2023-04-27T01:33:30;100912.09;;;5.92;75.71
13705;BME280;6924;52.122;9.952;2023-04-27T01:35:57;100914.03;;;5.87;76.15
13705;BME280;6924;52.122;9.952;2023-04-27T01:38:23;100914.88;;;5.87;76.33
13705;BME280;6924;52.122;9.952;2023-04-27T01:40:52;100913.75;;;5.88;76.52
13705;BME280;6924;52.122;9.952;2023-04-27T01:43:19;100912.91;;;5.88;76.69
13705;BME280;6924;52.122;9.952;2023-04-27T01:45:46;100918.53;;;5.88;77.03
13705;BME280;6924;52.122;9.952;2023-04-27T01:48:13;100919.66;;;5.87;77.21
13705;BME280;6924;52.122;9.952;2023-04-27T01:50:39;100921.91;;;5.85;77.01
13705;BME280;6924;52.122;9.952;2023-04-27T01:53:06;100926.38;;;5.86;77.39
13705;BME280;6924;52.122;9.952;2023-04-27T01:55:32;100928.63;;;5.84;77.52
13705;BME280;6924;52.122;9.952;2023-04-27T01:58:00;100933.94;;;5.80;77.55
13705;BME280;6924;52.122;9.952;2023-04-27T02:00:26;100939.25;;;5.76;77.41
13705;BME280;6924;52.122;9.952;2023-04-27T02:02:53;100938.41;;;5.76;77.80
13705;BME280;6924;52.122;9.952;2023-04-27T02:05:21;100944.88;;;5.82;77.75
13705;BME280;6924;52.122;9.952;2023-04-27T02:07:48;100950.50;;;5.82;77.88
13705;BME280;6924;52.122;9.952;2023-04-27T02:10:15;100946.59;;;5.83;77.86
13705;BME280;6924;52.122;9.952;2023-04-27T02:12:41;100957.53;;;5.84;77.60
13705;BME280;6924;52.122;9.952;2023-04-27T02:15:09;100953.88;;;5.78;77.31
13705;BME280;6924;52.122;9.952;2023-04-27T02:17:36;100956.09;;;5.76;77.76
13705;BME280;6924;52.122;9.952;2023-04-27T02:20:03;100959.22;;;5.80;77.95
13705;BME280;6924;52.122;9.952;2023-04-27T02:22:30;100959.47;;;5.73;77.11
13705;BME280;6924;52.122;9.952;2023-04-27T02:24:58;100963.88;;;5.64;77.33
13705;BME280;6924;52.122;9.952;2023-04-27T02:27:24;100975.41;;;5.68;77.58
13705;BME280;6924;52.122;9.952;2023-04-27T02:29:50;100978.59;;;5.39;77.83
13705;BME280;6924;52.122;9.952;2023-04-27T02:32:18;100979.44;;;5.39;78.01
13705;BME280;6924;52.122;9.952;2023-04-27T02:34:45;100972.78;;;5.51;77.54
13705;BME280;6924;52.122;9.952;2023-04-27T02:37:11;100979.28;;;5.56;77.28
13705;BME280;6924;52.122;9.952;2023-04-27T02:39:37;100973.91;;;5.50;76.82
13705;BME280;6924;52.122;9.952;2023-04-27T02:42:04;100983.16;;;5.50;77.12
13705;BME280;6924;52.122;9.952;2023-04-27T02:44:30;100985.16;;;5.55;76.64
13705;BME280;6924;52.122;9.952;2023-04-27T02:46:57;100979.44;;;5.39;77.25
13705;BME280;6924;52.122;9.952;2023-04-27T02:49:24;100983.97;;;5.46;76.96
13705;BME280;6924;52.122;9.952;2023-04-27T02:51:51;100979.22;;;5.46;77.01
13705;BME280;6924;52.122;9.952;2023-04-27T02:54:17;100975.31;;;5.47;77.11
13705;BME280;6924;52.122;9.952;2023-04-27T02:56:44;100978.47;;;5.18;77.08
13705;BME280;6924;52.122;9.952;2023-04-27T02:59:10;100974.19;;;5.11;77.75
13705;BME280;6924;52.122;9.952;2023-04-27T03:01:36;100970.06;;;5.18;77.01
13705;BME280;6924;52.122;9.952;2023-04-27T03:04:03;100973.91;;;5.07;77.07
13705;BME280;6924;52.122;9.952;2023-04-27T03:06:31;100970.56;;;5.15;77.15
13705;BME280;6924;52.122;9.952;2023-04-27T03:08:57;100979.00;;;5.15;77.20
13705;BME280;6924;52.122;9.952;2023-04-27T03:11:24;100979.63;;;5.23;77.92
13705;BME280;6924;52.122;9.952;2023-04-27T03:13:50;100974.53;;;5.20;77.82
13705;BME280;6924;52.122;9.952;2023-04-27T03:16:17;100978.81;;;5.27;77.71
13705;BME280;6924;52.122;9.952;2023-04-27T03:18:43;100977.72;;;5.33;77.40
13705;BME280;6924;52.122;9.952;2023-04-27T03:21:11;100984.19;;;5.34;77.72
13705;BME280;6924;52.122;9.952;2023-04-27T03:23:39;100979.16;;;5.36;77.47
13705;BME280;6924;52.122;9.952;2023-04-27T03:26:06;100981.16;;;5.41;77.75
13705;BME280;6924;52.122;9.952;2023-04-27T03:28:33;100980.03;;;5.42;77.55
13705;BME280;6924;52.122;9.952;2023-04-27T03:31:00;100974.13;;;5.38;77.51
13705;BME280;6924;52.122;9.952;2023-04-27T03:33:26;100979.44;;;5.39;78.05
13705;BME280;6924;52.122;9.952;2023-04-27T03:35:54;100987.84;;;5.34;77.75
13705;BME280;6924;52.122;9.952;2023-04-27T03:38:20;100975.16;;;5.27;78.42
13705;BME280;6924;52.122;9.952;2023-04-27T03:40:48;100979.91;;;5.26;78.17
13705;BME280;6924;52.122;9.952;2023-04-27T03:43:14;100982.16;;;5.24;77.70
13705;BME280;6924;52.122;9.952;2023-04-27T03:45:41;100990.53;;;5.19;78.40
13705;BME280;6924;52.122;9.952;2023-04-27T03:48:07;100986.56;;;5.15;78.09
13705;BME280;6924;52.122;9.952;2023-04-27T03:50:34;100997.47;;;5.11;78.03
13705;BME280;6924;52.122;9.952;2023-04-27T03:53:00;100997.13;;;5.03;78.40
13705;BME280;6924;52.122;9.952;2023-04-27T03:55:26;100993.97;;;4.94;78.04
13705;BME280;6924;52.122;9.952;2023-04-27T03:57:54;100998.94;;;4.87;78.47
13705;BME280;6924;52.122;9.952;2023-04-27T04:00:21;101002.88;;;4.86;78.11
13705;BME280;6924;52.122;9.952;2023-04-27T04:02:48;101007.06;;;4.83;78.90
13705;BME280;6924;52.122;9.952;2023-04-27T04:05:16;101002.75;;;4.75;78.66
13705;BME280;6924;52.122;9.952;2023-04-27T04:07:43;101003.56;;;4.71;79.25
13705;BME280;6924;52.122;9.952;2023-04-27T04:10:10;101001.19;;;4.58;79.22
13705;BME280;6924;52.122;9.952;2023-04-27T04:12:36;100998.38;;;4.58;79.51
13705;BME280;6924;52.122;9.952;2023-04-27T04:15:05;101000.03;;;4.53;79.91
13705;BME280;6924;52.122;9.952;2023-04-27T04:17:32;101003.81;;;4.42;80.15
13705;BME280;6924;52.122;9.952;2023-04-27T04:19:59;100992.28;;;4.39;80.25
13705;BME280;6924;52.122;9.952;2023-04-27T04:22:26;101002.06;;;4.36;80.97
13705;BME280;6924;52.122;9.952;2023-04-27T04:24:52;100997.59;;;4.35;80.85
13705;BME280;6924;52.122;9.952;2023-04-27T04:27:19;101005.84;;;4.25;81.15
13705;BME280;6924;52.122;9.952;2023-04-27T04:29:45;101005.81;;;4.20;81.25
13705;BME280;6924;52.122;9.952;2023-04-27T04:32:13;101010.44;;;4.09;81.56
13705;BME280;6924;52.122;9.952;2023-04-27T04:34:42;101014.91;;;4.10;82.23
13705;BME280;6924;52.122;9.952;2023-04-27T04:37:09;101018.50;;;4.05;82.39
13705;BME280;6924;52.122;9.952;2023-04-27T04:39:35;101014.47;;;3.96;83.03
13705;BME280;6924;52.122;9.952;2023-04-27T04:42:02;101020.13;;;4.01;83.00
13705;BME280;6924;52.122;9.952;2023-04-27T04:44:29;101011.84;;;3.89;84.24
13705;BME280;6924;52.122;9.952;2023-04-27T04:46:56;101009.84;;;3.85;84.41
13705;BME280;6924;52.122;9.952;2023-04-27T04:49:24;101015.78;;;3.88;84.20
13705;BME280;6924;52.122;9.952;2023-04-27T04:51:50;101016.19;;;3.97;84.63
13705;BME280;6924;52.122;9.952;2023-04-27T04:54:16;101020.13;;;4.01;84.36
13705;BME280;6924;52.122;9.952;2023-04-27T04:56:43;101027.47;;;4.07;85.19
13705;BME280;6924;52.122;9.952;2023-04-27T04:59:09;101031.47;;;4.11;85.41
13705;BME280;6924;52.122;9.952;2023-04-27T05:01:36;101024.56;;;4.19;85.78
13705;BME280;6924;52.122;9.952;2023-04-27T05:04:03;101031.06;;;4.25;85.14
13705;BME280;6924;52.122;9.952;2023-04-27T05:06:30;101032.88;;;4.36;85.11
13705;BME280;6924;52.122;9.952;2023-04-27T05:08:57;101036.38;;;4.48;84.71
13705;BME280;6924;52.122;9.952;2023-04-27T05:11:23;101036.78;;;4.57;84.52
13705;BME280;6924;52.122;9.952;2023-04-27T05:13:50;101036.56;;;4.64;84.09
13705;BME280;6924;52.122;9.952;2023-04-27T05:16:16;101036.66;;;4.74;84.73
13705;BME280;6924;52.122;9.952;2023-04-27T05:18:43;101035.34;;;4.82;85.24
13705;BME280;6924;52.122;9.952;2023-04-27T05:21:13;101038.84;;;4.94;84.88
13705;BME280;6924;52.122;9.952;2023-04-27T05:23:41;101042.50;;;5.00;85.18
13705;BME280;6924;52.122;9.952;2023-04-27T05:26:11;101046.00;;;5.12;84.59
13705;BME280;6924;52.122;9.952;2023-04-27T05:28:38;101049.47;;;5.24;84.34
13705;BME280;6924;52.122;9.952;2023-04-27T05:31:04;101050.13;;;5.36;83.88
13705;BME280;6924;52.122;9.952;2023-04-27T05:33:30;101047.38;;;5.47;84.24
13705;BME280;6924;52.122;9.952;2023-04-27T05:35:57;101043.56;;;5.58;83.34
13705;BME280;6924;52.122;9.952;2023-04-27T05:38:24;101056.53;;;5.69;82.84
13705;BME280;6924;52.122;9.952;2023-04-27T05:40:54;101053.53;;;5.81;82.23
13705;BME280;6924;52.122;9.952;2023-04-27T05:43:20;101046.84;;;5.92;81.79
13705;BME280;6924;52.122;9.952;2023-04-27T05:45:47;101050.84;;;6.02;80.64
13705;BME280;6924;52.122;9.952;2023-04-27T05:48:13;101051.16;;;6.05;79.64
13705;BME280;6924;52.122;9.952;2023-04-27T05:50:40;101046.19;;;6.17;78.62
13705;BME280;6924;52.122;9.952;2023-04-27T05:53:06;101053.84;;;5.85;74.87
13705;BME280;6924;52.122;9.952;2023-04-27T05:55:33;101050.94;;;5.69;75.27
13705;BME280;6924;52.122;9.952;2023-04-27T05:58:01;101053.38;;;5.98;75.06
13705;BME280;6924;52.122;9.952;2023-04-27T06:00:27;101054.81;;;6.00;73.60
13705;BME280;6924;52.122;9.952;2023-04-27T06:02:54;101057.72;;;5.73;73.72
13705;BME280;6924;52.122;9.952;2023-04-27T06:05:20;101068.47;;;5.92;77.39
13705;BME280;6924;52.122;9.952;2023-04-27T06:07:47;101066.59;;;6.03;74.39
13705;BME280;6924;52.122;9.952;2023-04-27T06:10:14;101060.16;;;6.07;73.07
13705;BME280;6924;52.122;9.952;2023-04-27T06:12:41;101062.47;;;6.20;73.81
13705;BME280;6924;52.122;9.952;2023-04-27T06:15:10;101068.16;;;6.36;73.32
13705;BME280;6924;52.122;9.952;2023-04-27T06:17:37;101063.44;;;6.57;72.64
13705;BME280;6924;52.122;9.952;2023-04-27T06:20:05;101060.72;;;6.77;71.86
13705;BME280;6924;52.122;9.952;2023-04-27T06:22:32;101063.84;;;6.91;71.17
13705;BME280;6924;52.122;9.952;2023-04-27T06:24:59;101065.25;;;6.94;69.59
13705;BME280;6924;52.122;9.952;2023-04-27T06:27:25;101066.34;;;6.82;69.88
13705;BME280;6924;52.122;9.952;2023-04-27T06:29:51;101073.13;;;6.92;70.59
13705;BME280;6924;52.122;9.952;2023-04-27T06:32:19;101070.06;;;7.03;69.59
13705;BME280;6924;52.122;9.952;2023-04-27T06:34:46;101077.06;;;6.96;66.07
13705;BME280;6924;52.122;9.952;2023-04-27T06:37:12;101070.63;;;7.26;69.00
13705;BME280;6924;52.122;9.952;2023-04-27T06:39:39;101068.09;;;7.19;65.54
13705;BME280;6924;52.122;9.952;2023-04-27T06:42:06;101066.13;;;7.51;66.04
13705;BME280;6924;52.122;9.952;2023-04-27T06:44:32;101076.81;;;7.79;65.96
13705;BME280;6924;52.122;9.952;2023-04-27T06:46:58;101068.91;;;7.86;65.59
13705;BME280;6924;52.122;9.952;2023-04-27T06:49:26;101070.88;;;7.86;65.83
13705;BME280;6924;52.122;9.952;2023-04-27T06:51:53;101083.22;;;8.16;64.48
13705;BME280;6924;52.122;9.952;2023-04-27T06:54:19;101079.53;;;8.15;62.75
13705;BME280;6924;52.122;9.952;2023-04-27T06:56:46;101082.94;;;8.02;58.22
13705;BME280;6924;52.122;9.952;2023-04-27T06:59:12;101078.72;;;8.04;59.34
13705;BME280;6924;52.122;9.952;2023-04-27T07:01:38;101077.59;;;8.11;57.40
13705;BME280;6924;52.122;9.952;2023-04-27T07:04:05;101088.31;;;8.03;58.16
13705;BME280;6924;52.122;9.952;2023-04-27T07:06:33;101072.84;;;7.85;55.73
13705;BME280;6924;52.122;9.952;2023-04-27T07:08:59;101074.00;;;7.79;58.35
13705;BME280;6924;52.122;9.952;2023-04-27T07:11:26;101074.00;;;7.79;56.50
13705;BME280;6924;52.122;9.952;2023-04-27T07:13:52;101064.69;;;7.79;58.45
13705;BME280;6924;52.122;9.952;2023-04-27T07:16:19;101073.63;;;8.06;59.28
13705;BME280;6924;52.122;9.952;2023-04-27T07:18:45;101074.50;;;8.02;58.70
13705;BME280;6924;52.122;9.952;2023-04-27T07:21:12;101077.88;;;8.04;55.16
13705;BME280;6924;52.122;9.952;2023-04-27T07:23:39;101076.69;;;8.25;55.34
13705;BME280;6924;52.122;9.952;2023-04-27T07:26:07;101078.06;;;8.43;54.57
13705;BME280;6924;52.122;9.952;2023-04-27T07:28:34;101077.50;;;8.31;55.37
13705;BME280;6924;52.122;9.952;2023-04-27T07:31:03;101077.25;;;8.27;58.87
13705;BME280;6924;52.122;9.952;2023-04-27T07:33:29;101079.22;;;8.22;54.77
13705;BME280;6924;52.122;9.952;2023-04-27T07:35:56;101079.19;;;8.47;55.94
13705;BME280;6924;52.122;9.952;2023-04-27T07:38:23;101095.22;;;8.52;56.26
13705;BME280;6924;52.122;9.952;2023-04-27T07:40:51;101085.63;;;8.58;54.25
13705;BME280;6924;52.122;9.952;2023-04-27T07:43:19;101094.13;;;8.48;51.94
13705;BME280;6924;52.122;9.952;2023-04-27T07:45:47;101096.97;;;8.43;53.06
13705;BME280;6924;52.122;9.952;2023-04-27T07:48:13;101094.88;;;8.64;54.32
13705;BME280;6924;52.122;9.952;2023-04-27T07:50:40;101086.47;;;9.08;55.10
13705;BME280;6924;52.122;9.952;2023-04-27T07:53:06;101090.16;;;9.04;53.37
13705;BME280;6924;52.122;9.952;2023-04-27T07:55:33;101087.59;;;9.47;56.06
13705;BME280;6924;52.122;9.952;2023-04-27T07:58:01;101092.91;;;9.54;53.77
13705;BME280;6924;52.122;9.952;2023-04-27T08:00:28;101086.78;;;9.41;50.32
13705;BME280;6924;52.122;9.952;2023-04-27T08:02:54;101086.66;;;9.22;51.37
13705;BME280;6924;52.122;9.952;2023-04-27T08:05:21;101088.09;;;9.20;50.41
13705;BME280;6924;52.122;9.952;2023-04-27T08:07:47;101085.63;;;9.08;50.58
13705;BME280;6924;52.122;9.952;2023-04-27T08:10:14;101084.38;;;9.24;50.87
13705;BME280;6924;52.122;9.952;2023-04-27T08:12:40;101080.31;;;9.41;49.38
13705;BME280;6924;52.122;9.952;2023-04-27T08:15:09;101083.22;;;9.65;49.65
13705;BME280;6924;52.122;9.952;2023-04-27T08:17:36;101076.13;;;9.97;49.99
13705;BME280;6924;52.122;9.952;2023-04-27T08:20:05;101071.63;;;9.96;48.70
13705;BME280;6924;52.122;9.952;2023-04-27T08:22:33;101071.38;;;10.45;50.45
13705;BME280;6924;52.122;9.952;2023-04-27T08:25:00;101081.28;;;10.19;46.40
13705;BME280;6924;52.122;9.952;2023-04-27T08:27:28;101075.06;;;10.17;46.03
13705;BME280;6924;52.122;9.952;2023-04-27T08:29:55;101074.19;;;10.21;45.96
13705;BME280;6924;52.122;9.952;2023-04-27T08:32:22;101076.75;;;10.18;45.46
13705;BME280;6924;52.122;9.952;2023-04-27T08:34:49;101068.53;;;10.21;45.91
13705;BME280;6924;52.122;9.952;2023-04-27T08:37:15;101076.66;;;9.99;47.83
13705;BME280;6924;52.122;9.952;2023-04-27T08:39:42;101071.75;;;10.39;48.59
13705;BME280;6924;52.122;9.952;2023-04-27T08:42:09;101067.25;;;10.08;44.92
13705;BME280;6924;52.122;9.952;2023-04-27T08:44:37;101069.31;;;10.51;47.74
13705;BME280;6924;52.122;9.952;2023-04-27T08:47:04;101064.94;;;10.83;43.77
13705;BME280;6924;52.122;9.952;2023-04-27T08:49:32;101058.06;;;11.27;44.99
13705;BME280;6924;52.122;9.952;2023-04-27T08:51:59;101067.69;;;11.45;42.43
13705;BME280;6924;52.122;9.952;2023-04-27T08:54:25;101064.84;;;10.88;41.67
13705;BME280;6924;52.122;9.952;2023-04-27T08:56:52;101063.47;;;11.42;41.31
13705;BME280;6924;52.122;9.952;2023-04-27T08:59:18;101058.28;;;11.63;42.27
13705;BME280;6924;52.122;9.952;2023-04-27T09:01:45;101056.81;;;11.98;44.24
13705;BME280;6924;52.122;9.952;2023-04-27T09:04:13;101055.06;;;12.44;41.00
13705;BME280;6924;52.122;9.952;2023-04-27T09:06:41;101048.84;;;12.56;42.36
13705;BME280;6924;52.122;9.952;2023-04-27T09:09:07;101052.09;;;12.08;42.01
13705;BME280;6924;52.122;9.952;2023-04-27T09:11:36;101061.88;;;11.17;42.17
13705;BME280;6924;52.122;9.952;2023-04-27T09:14:14;101065.88;;;11.16;42.77
13705;BME280;6924;52.122;9.952;2023-04-27T09:16:41;101061.69;;;11.46;42.52
13705;BME280;6924;52.122;9.952;2023-04-27T09:19:08;101062.13;;;10.83;41.41
13705;BME280;6924;52.122;9.952;2023-04-27T09:21:35;101061.56;;;10.38;42.74
13705;BME280;6924;52.122;9.952;2023-04-27T09:24:10;101061.34;;;10.34;41.40
13705;BME280;6924;52.122;9.952;2023-04-27T09:26:37;101059.44;;;10.48;41.79
13705;BME280;6924;52.122;9.952;2023-04-27T09:29:04;101065.34;;;10.52;40.65
13705;BME280;6924;52.122;9.952;2023-04-27T09:31:31;101065.00;;;11.15;42.15
13705;BME280;6924;52.122;9.952;2023-04-27T09:33:57;101068.81;;;11.44;40.79
13705;BME280;6924;52.122;9.952;2023-04-27T09:36:24;101058.94;;;12.07;39.94
13705;BME280;6924;52.122;9.952;2023-04-27T09:38:51;101063.47;;;12.35;38.30
13705;BME280;6924;52.122;9.952;2023-04-27T09:41:20;101055.88;;;11.89;39.21
13705;BME280;6924;52.122;9.952;2023-04-27T09:43:47;101047.19;;;12.55;40.88
13705;BME280;6924;52.122;9.952;2023-04-27T09:46:14;101045.25;;;13.28;38.96
13705;BME280;6924;52.122;9.952;2023-04-27T09:48:41;101034.84;;;13.91;38.58
13705;BME280;6924;52.122;9.952;2023-04-27T09:51:08;101034.00;;;14.39;38.06
13705;BME280;6924;52.122;9.952;2023-04-27T09:53:36;101032.09;;;14.17;35.95
13705;BME280;6924;52.122;9.952;2023-04-27T09:56:15;101032.28;;;13.22;35.21
13705;BME280;6924;52.122;9.952;2023-04-27T09:59:28;101029.91;;;12.65;38.09
13705;BME280;6924;52.122;9.952;2023-04-27T10:02:02;101040.97;;;12.67;39.48
13705;BME280;6924;52.122;9.952;2023-04-27T10:04:42;101041.09;;;12.61;37.94
13705;BME280;6924;52.122;9.952;2023-04-27T10:07:11;101037.66;;;12.37;38.06
13705;BME280;6924;52.122;9.952;2023-04-27T10:09:40;101036.69;;;12.92;39.02
13705;BME280;6924;52.122;9.952;2023-04-27T10:12:15;101035.72;;;13.10;36.34
13705;BME280;6924;52.122;9.952;2023-04-27T10:14:51;101035.03;;;12.91;37.87
13705;BME280;6924;52.122;9.952;2023-04-27T10:17:18;101045.91;;;13.11;36.41
13705;BME280;6924;52.122;9.952;2023-04-27T10:19:55;101039.66;;;13.37;36.28
13705;BME280;6924;52.122;9.952;2023-04-27T10:22:23;101043.63;;;13.36;36.15
13705;BME280;6924;52.122;9.952;2023-04-27T10:24:50;101043.34;;;13.91;34.77
13705;BME280;6924;52.122;9.952;2023-04-27T10:27:18;101042.09;;;13.52;36.19
13705;BME280;6924;52.122;9.952;2023-04-27T10:29:47;101036.91;;;12.95;36.68
13705;BME280;6924;52.122;9.952;2023-04-27T10:32:20;101039.25;;;13.16;35.78
13705;BME280;6924;52.122;9.952;2023-04-27T10:34:48;101037.81;;;13.63;37.34
13705;BME280;6924;52.122;9.952;2023-04-27T10:37:15;101033.53;;;12.93;35.94
13705;BME280;6924;52.122;9.952;2023-04-27T10:39:43;101034.91;;;12.96;37.77
13705;BME280;6924;52.122;9.952;2023-04-27T10:42:10;101029.13;;;13.01;37.81
13705;BME280;6924;52.122;9.952;2023-04-27T10:44:37;101031.50;;;13.44;36.98
13705;BME280;6924;52.122;9.952;2023-04-27T10:47:12;101035.63;;;13.38;33.50
13705;BME280;6924;52.122;9.952;2023-04-27T10:49:41;101027.44;;;13.36;31.86
13705;BME280;6924;52.122;9.952;2023-04-27T10:52:08;101032.59;;;13.34;34.33
13705;BME280;6924;52.122;9.952;2023-04-27T10:54:34;101031.69;;;13.70;32.98
13705;BME280;6924;52.122;9.952;2023-04-27T10:57:03;101014.63;;;14.01;33.63
13705;BME280;6924;52.122;9.952;2023-04-27T10:59:29;101015.38;;;14.56;33.69
13705;BME280;6924;52.122;9.952;2023-04-27T11:01:56;101024.69;;;14.47;31.84
13705;BME280;6924;52.122;9.952;2023-04-27T11:04:22;101012.38;;;14.78;32.54
13705;BME280;6924;52.122;9.952;2023-04-27T11:06:51;101012.56;;;14.73;32.19
13705;BME280;6924;52.122;9.952;2023-04-27T11:09:24;101016.09;;;15.05;32.27
13705;BME280;6924;52.122;9.952;2023-04-27T11:11:51;101006.69;;;15.57;33.01
13705;BME280;6924;52.122;9.952;2023-04-27T11:14:18;101011.34;;;14.57;30.39
13705;BME280;6924;52.122;9.952;2023-04-27T11:16:46;101005.00;;;14.60;30.78
13705;BME280;6924;52.122;9.952;2023-04-27T11:19:13;101003.91;;;13.98;31.38
13705;BME280;6924;52.122;9.952;2023-04-27T11:21:39;100999.75;;;14.04;31.98
13705;BME280;6924;52.122;9.952;2023-04-27T11:24:07;101010.44;;;13.99;32.21
13705;BME280;6924;52.122;9.952;2023-04-27T11:26:34;101009.59;;;13.67;31.81
13705;BME280;6924;52.122;9.952;2023-04-27T11:29:03;101016.75;;;13.64;33.01
13705;BME280;6924;52.122;9.952;2023-04-27T11:31:38;101012.19;;;13.55;31.87
13705;BME280;6924;52.122;9.952;2023-04-27T11:34:05;101014.25;;;14.34;35.64
13705;BME280;6924;52.122;9.952;2023-04-27T11:36:32;101007.06;;;15.12;33.98
13705;BME280;6924;52.122;9.952;2023-04-27T11:38:58;101003.31;;;15.63;32.94
13705;BME280;6924;52.122;9.952;2023-04-27T11:41:33;101004.84;;;16.17;31.42
13705;BME280;6924;52.122;9.952;2023-04-27T11:44:04;101003.09;;;16.33;29.56
13705;BME280;6924;52.122;9.952;2023-04-27T11:46:32;100998.66;;;16.44;29.55
13705;BME280;6924;52.122;9.952;2023-04-27T11:49:01;100996.09;;;16.22;29.94
13705;BME280;6924;52.122;9.952;2023-04-27T11:51:28;100992.47;;;16.04;29.89
13705;BME280;6924;52.122;9.952;2023-04-27T11:53:55;100991.88;;;16.28;31.40
13705;BME280;6924;52.122;9.952;2023-04-27T11:56:34;100993.66;;;16.41;30.53
13705;BME280;6924;52.122;9.952;2023-04-27T11:59:01;100986.69;;;16.51;31.88
13705;BME280;6924;52.122;9.952;2023-04-27T12:01:29;100980.25;;;16.63;30.19
13705;BME280;6924;52.122;9.952;2023-04-27T12:03:56;100976.38;;;16.67;29.64
13705;BME280;6924;52.122;9.952;2023-04-27T12:06:26;100978.34;;;15.52;30.06
13705;BME280;6924;52.122;9.952;2023-04-27T12:08:53;100978.88;;;15.19;30.27
13705;BME280;6924;52.122;9.952;2023-04-27T12:11:19;100976.41;;;15.00;32.02
13705;BME280;6924;52.122;9.952;2023-04-27T12:13:47;100971.19;;;14.84;31.95
13705;BME280;6924;52.122;9.952;2023-04-27T12:16:14;100969.69;;;15.04;33.54
13705;BME280;6924;52.122;9.952;2023-04-27T12:18:40;100973.31;;;14.04;32.76
13705;BME280;6924;52.122;9.952;2023-04-27T12:21:06;100978.78;;;13.92;32.85
13705;BME280;6924;52.122;9.952;2023-04-27T12:23:34;100987.81;;;13.17;33.12
13705;BME280;6924;52.122;9.952;2023-04-27T12:26:01;100979.81;;;13.19;33.16
13705;BME280;6924;52.122;9.952;2023-04-27T12:28:27;100978.38;;;12.86;33.35
13705;BME280;6924;52.122;9.952;2023-04-27T12:30:55;100976.81;;;12.79;33.97
13705;BME280;6924;52.122;9.952;2023-04-27T12:33:21;100972.28;;;12.78;34.45
13705;BME280;6924;52.122;9.952;2023-04-27T12:35:48;100975.41;;;13.13;33.82
13705;BME280;6924;52.122;9.952;2023-04-27T12:38:14;100974.97;;;12.97;34.40
13705;BME280;6924;52.122;9.952;2023-04-27T12:40:41;100965.69;;;12.69;33.60
13705;BME280;6924;52.122;9.952;2023-04-27T12:43:07;100969.22;;;12.89;33.33
13705;BME280;6924;52.122;9.952;2023-04-27T12:45:34;100966.78;;;13.18;34.81
13705;BME280;6924;52.122;9.952;2023-04-27T12:48:02;100957.31;;;13.46;34.89
13705;BME280;6924;52.122;9.952;2023-04-27T12:50:29;100964.13;;;13.67;34.02
13705;BME280;6924;52.122;9.952;2023-04-27T12:52:55;100963.56;;;13.56;33.52
13705;BME280;6924;52.122;9.952;2023-04-27T12:55:22;100969.50;;;13.77;33.90
13705;BME280;6924;52.122;9.952;2023-04-27T12:57:48;100959.16;;;13.28;33.88
13705;BME280;6924;52.122;9.952;2023-04-27T13:00:15;100955.03;;;12.89;33.07
13705;BME280;6924;52.122;9.952;2023-04-27T13:02:42;100961.25;;;13.36;34.95
13705;BME280;6924;52.122;9.952;2023-04-27T13:05:11;100949.63;;;13.46;34.11
13705;BME280;6924;52.122;9.952;2023-04-27T13:07:38;100960.84;;;13.06;33.02